Terminal Aerodrome Forecast
Issued by NWS Wilmington, NC

Home | Current Version | Previous Version | Text Only | Print | Product List | Glossary On
Versions: 1 2 3 4 5 6 7 8 9 10 11 12 13 14 15 16 17 18 19 20
000
FTUS42 KILM 301202 CCA
TAFLBT
TAF COR
KLBT 301202Z 3012/3112 08008KT P6SM SCT005
     FM301430 11009KT P6SM BKN035
     FM310200 14010KT P6SM BKN020 PROB30 3103/3109 2SM TSRA OVC010CB
     FM310900 16011KT 3SM TSRA OVC015CB=

USA.gov is the U.S. government's official web portal to all federal, state and local government web resources and services.